createdAt,value
2018-01-27T00:01:27.389Z,101300
2018-01-27T00:03:55.644Z,101285
2018-01-27T00:06:23.902Z,101291
2018-01-27T00:08:52.164Z,101296
2018-01-27T00:11:20.389Z,101292
2018-01-27T00:13:52.578Z,101300
2018-01-27T00:16:20.807Z,101296
2018-01-27T00:18:49.052Z,101300
2018-01-27T00:21:17.322Z,101297
2018-01-27T00:23:45.601Z,101303
2018-01-27T00:26:13.839Z,101312
2018-01-27T00:28:42.101Z,101315
2018-01-27T00:31:10.345Z,101323
2018-01-27T00:33:38.588Z,101322
2018-01-27T00:36:06.873Z,101319
2018-01-27T00:38:35.125Z,101324
2018-01-27T00:41:03.388Z,101324
2018-01-27T00:43:31.668Z,101333
2018-01-27T00:45:59.937Z,101331
2018-01-27T00:48:28.171Z,101328
2018-01-27T00:50:56.458Z,101339
2018-01-27T00:53:25.461Z,101342
2018-01-27T00:55:54.485Z,101355
2018-01-27T00:58:22.749Z,101346
2018-01-27T01:00:51.006Z,101355
2018-01-27T01:03:20.006Z,101358
2018-01-27T01:05:48.274Z,101343
2018-01-27T01:08:17.316Z,101350
2018-01-27T01:10:45.578Z,101350
2018-01-27T01:13:14.470Z,101359
2018-01-27T01:15:42.704Z,101352
2018-01-27T01:18:13.840Z,101349
2018-01-27T01:20:42.912Z,101364
2018-01-27T01:23:11.147Z,101369
2018-01-27T01:25:39.388Z,101363
2018-01-27T01:28:08.423Z,101358
2018-01-27T01:30:37.430Z,101362
2018-01-27T01:33:05.657Z,101349
2018-01-27T01:35:33.971Z,101361
2018-01-27T01:38:02.224Z,101372
2018-01-27T01:40:30.478Z,101374
2018-01-27T01:43:05.105Z,101371
2018-01-27T01:45:34.127Z,101371
2018-01-27T01:48:02.360Z,101377
2018-01-27T01:50:30.683Z,101376
2018-01-27T01:52:58.929Z,101372
2018-01-27T01:55:27.935Z,101374
2018-01-27T01:57:56.236Z,101378
2018-01-27T02:00:24.473Z,101385
2018-01-27T02:02:52.725Z,101385
2018-01-27T02:05:20.996Z,101388
2018-01-27T02:07:49.237Z,101385
2018-01-27T02:10:17.486Z,101381
2018-01-27T02:12:45.771Z,101385
2018-01-27T02:15:14.000Z,101392
2018-01-27T02:17:42.252Z,101389
2018-01-27T02:20:10.539Z,101383
2018-01-27T02:22:38.799Z,101380
2018-01-27T02:25:07.050Z,101388
2018-01-27T02:27:35.369Z,101379
2018-01-27T02:30:03.619Z,101388
2018-01-27T02:32:31.866Z,101379
2018-01-27T02:35:00.138Z,101386
2018-01-27T02:37:28.435Z,101381
2018-01-27T02:39:56.719Z,101390
2018-01-27T02:42:24.987Z,101388
2018-01-27T02:44:53.226Z,101391
2018-01-27T02:47:22.251Z,101390
2018-01-27T02:49:50.537Z,101390
2018-01-27T02:52:18.783Z,101399
2018-01-27T02:54:47.031Z,101404
2018-01-27T02:57:15.306Z,101414
2018-01-27T02:59:43.557Z,101403
2018-01-27T03:02:11.803Z,101413
2018-01-27T03:04:40.083Z,101414
2018-01-27T03:07:08.323Z,101418
2018-01-27T03:09:37.323Z,101409
2018-01-27T03:12:06.363Z,101413
2018-01-27T03:14:34.635Z,101415
2018-01-27T03:17:02.875Z,101420
2018-01-27T03:19:31.922Z,101419
2018-01-27T03:22:00.152Z,101429
2018-01-27T03:24:28.390Z,101438
2018-01-27T03:26:56.657Z,101429
2018-01-27T03:29:24.906Z,101425
2018-01-27T03:31:53.143Z,101426
2018-01-27T03:34:21.416Z,101432
2018-01-27T03:36:49.636Z,101435
2018-01-27T03:39:17.856Z,101443
2018-01-27T03:41:46.141Z,101442
2018-01-27T03:44:14.400Z,101442
2018-01-27T03:46:42.658Z,101446
2018-01-27T03:49:10.934Z,101449
2018-01-27T03:51:39.183Z,101444
2018-01-27T03:54:07.422Z,101469
2018-01-27T03:56:35.687Z,101470
2018-01-27T03:59:04.691Z,101472
2018-01-27T04:01:32.955Z,101477
2018-01-27T04:04:02.000Z,101480
2018-01-27T04:06:30.254Z,101476
2018-01-27T04:08:58.497Z,101481
2018-01-27T04:11:26.776Z,101478
2018-01-27T04:13:55.017Z,101474
2018-01-27T04:16:23.254Z,101483
2018-01-27T04:18:51.542Z,101481
2018-01-27T04:21:19.822Z,101485
2018-01-27T04:23:48.045Z,101482
2018-01-27T04:26:17.132Z,101494
2018-01-27T04:28:45.371Z,101501
2018-01-27T04:31:13.753Z,101506
2018-01-27T04:33:42.042Z,101505
2018-01-27T04:36:10.305Z,101506
2018-01-27T04:38:38.549Z,101532
2018-01-27T04:41:06.809Z,101530
2018-01-27T04:43:35.059Z,101519
2018-01-27T04:46:03.307Z,101522
2018-01-27T04:48:31.588Z,101528
2018-01-27T04:50:59.800Z,101524
2018-01-27T04:53:28.822Z,101529
2018-01-27T04:55:57.126Z,101541
2018-01-27T04:58:25.370Z,101537
2018-01-27T05:00:53.630Z,101550
2018-01-27T05:03:21.924Z,101561
2018-01-27T05:05:50.200Z,101552
2018-01-27T05:08:18.446Z,101556
2018-01-27T05:10:47.494Z,101559
2018-01-27T05:13:15.743Z,101557
2018-01-27T05:15:43.998Z,101561
2018-01-27T05:18:13.071Z,101559
2018-01-27T05:20:42.094Z,101555
2018-01-27T05:23:10.351Z,101570
2018-01-27T05:25:39.379Z,101580
2018-01-27T05:28:07.688Z,101565
2018-01-27T05:30:35.932Z,101572
2018-01-27T05:33:04.234Z,101575
2018-01-27T05:35:32.485Z,101584
2018-01-27T05:38:00.736Z,101586
2018-01-27T05:40:29.037Z,101590
2018-01-27T05:42:57.267Z,101583
2018-01-27T05:45:25.516Z,101591
2018-01-27T05:47:53.785Z,101598
2018-01-27T05:50:22.049Z,101607
2018-01-27T05:52:50.318Z,101608
2018-01-27T05:55:18.594Z,101607
2018-01-27T05:57:46.836Z,101622
2018-01-27T06:00:15.092Z,101622
2018-01-27T06:02:43.370Z,101626
2018-01-27T06:05:11.609Z,101626
2018-01-27T06:07:39.864Z,101630
2018-01-27T06:10:08.144Z,101630
2018-01-27T06:12:36.372Z,101641
2018-01-27T06:15:05.433Z,101639
2018-01-27T06:17:33.727Z,101642
2018-01-27T06:20:01.960Z,101655
2018-01-27T06:22:30.224Z,101659
2018-01-27T06:24:58.501Z,101652
2018-01-27T06:27:26.770Z,101650
2018-01-27T06:29:55.026Z,101653
2018-01-27T06:32:24.104Z,101657
2018-01-27T06:34:52.373Z,101649
2018-01-27T06:37:20.632Z,101662
2018-01-27T06:39:48.968Z,101657
2018-01-27T06:42:17.251Z,101667
2018-01-27T06:44:45.498Z,101669
2018-01-27T06:47:14.542Z,101676
2018-01-27T06:49:42.791Z,101678
2018-01-27T06:52:11.111Z,101675
2018-01-27T06:54:39.423Z,101682
2018-01-27T06:57:08.486Z,101681
2018-01-27T06:59:36.741Z,101698
2018-01-27T07:02:04.979Z,101712
2018-01-27T07:04:34.014Z,101713
2018-01-27T07:07:02.330Z,101707
2018-01-27T07:09:30.554Z,101711
2018-01-27T07:11:58.830Z,101719
2018-01-27T07:14:27.883Z,101722
2018-01-27T07:16:56.879Z,101720
2018-01-27T07:19:25.967Z,101730
2018-01-27T07:21:54.967Z,101733
2018-01-27T07:24:23.961Z,101731
2018-01-27T07:26:52.242Z,101747
2018-01-27T07:29:21.269Z,101744
2018-01-27T07:31:49.575Z,101749
2018-01-27T07:34:17.800Z,101754
2018-01-27T07:36:46.082Z,101764
2018-01-27T07:39:14.400Z,101757
2018-01-27T07:41:42.644Z,101762
2018-01-27T07:44:10.890Z,101763
2018-01-27T07:46:39.212Z,101767
2018-01-27T07:49:08.251Z,101773
2018-01-27T07:51:36.515Z,101774
2018-01-27T07:54:04.785Z,101775
2018-01-27T07:56:33.095Z,101780
2018-01-27T07:59:01.388Z,101786
2018-01-27T08:01:29.638Z,101806
2018-01-27T08:03:58.764Z,101810
2018-01-27T08:06:27.002Z,101812
2018-01-27T08:08:55.994Z,101806
2018-01-27T08:11:25.076Z,101815
2018-01-27T08:13:53.322Z,101816
2018-01-27T08:16:21.563Z,101814
2018-01-27T08:18:49.883Z,101815
2018-01-27T08:21:18.118Z,101813
2018-01-27T08:23:46.370Z,101820
2018-01-27T08:26:15.411Z,101819
2018-01-27T08:28:43.646Z,101823
2018-01-27T08:31:11.926Z,101825
2018-01-27T08:33:40.227Z,101827
2018-01-27T08:36:08.473Z,101832
2018-01-27T08:38:36.728Z,101831
2018-01-27T08:41:05.773Z,101823
2018-01-27T08:43:34.022Z,101828
2018-01-27T08:46:02.295Z,101831
2018-01-27T08:48:30.604Z,101822
2018-01-27T08:50:58.832Z,101823
2018-01-27T08:53:27.853Z,101815
2018-01-27T08:55:56.180Z,101828
2018-01-27T08:58:24.413Z,101837
2018-01-27T09:00:52.710Z,101843
2018-01-27T09:03:20.992Z,101836
2018-01-27T09:05:49.213Z,101842
2018-01-27T09:08:17.497Z,101845
2018-01-27T09:10:45.774Z,101849
2018-01-27T09:13:14.060Z,101843
2018-01-27T09:15:42.314Z,101846
2018-01-27T09:18:11.343Z,101853
2018-01-27T09:20:39.596Z,101863
2018-01-27T09:23:07.888Z,101863
2018-01-27T09:25:36.955Z,101876
2018-01-27T09:28:05.210Z,101869
2018-01-27T09:30:33.457Z,101874
2018-01-27T09:33:01.761Z,101870
2018-01-27T09:35:30.035Z,101869
2018-01-27T09:37:58.483Z,101871
2018-01-27T09:40:26.794Z,101869
2018-01-27T09:42:55.882Z,101871
2018-01-27T09:45:24.104Z,101870
2018-01-27T09:47:52.441Z,101876
2018-01-27T09:50:20.686Z,101876
2018-01-27T09:52:49.010Z,101882
2018-01-27T09:55:17.311Z,101881
2018-01-27T09:57:45.574Z,101875
2018-01-27T10:00:13.812Z,101876
2018-01-27T10:02:42.119Z,101884
2018-01-27T10:05:10.417Z,101875
2018-01-27T10:07:38.652Z,101883
2018-01-27T10:10:07.797Z,101878
2018-01-27T10:12:36.093Z,101885
2018-01-27T10:15:04.397Z,101864
2018-01-27T10:17:33.511Z,101870
2018-01-27T10:20:02.596Z,101870
2018-01-27T10:22:31.641Z,101872
2018-01-27T10:24:59.950Z,101856
2018-01-27T10:27:28.191Z,101854
2018-01-27T10:29:56.466Z,101859
2018-01-27T10:32:24.808Z,101861
2018-01-27T10:34:53.063Z,101864
2018-01-27T10:37:21.389Z,101857
2018-01-27T10:39:49.882Z,101864
2018-01-27T10:42:18.188Z,101876
2018-01-27T10:44:46.587Z,101877
2018-01-27T10:47:15.641Z,101876
2018-01-27T10:49:43.900Z,101871
2018-01-27T10:52:12.147Z,101874
2018-01-27T10:54:40.474Z,101874
2018-01-27T10:57:08.990Z,101875
2018-01-27T10:59:38.119Z,101878
2018-01-27T11:02:06.440Z,101889
2018-01-27T11:04:34.707Z,101880
2018-01-27T11:07:02.981Z,101892
2018-01-27T11:09:31.338Z,101895
2018-01-27T11:11:59.591Z,101895
2018-01-27T11:14:27.833Z,101908
2018-01-27T11:16:56.911Z,101908
2018-01-27T11:19:25.186Z,101907
2018-01-27T11:21:53.466Z,101913
2018-01-27T11:24:21.765Z,101912
2018-01-27T11:26:50.053Z,101906
2018-01-27T11:29:18.344Z,101908
2018-01-27T11:31:46.648Z,101912
2018-01-27T11:34:14.898Z,101902
2018-01-27T11:36:43.311Z,101904
2018-01-27T11:39:12.643Z,101912
2018-01-27T11:41:41.770Z,101911
2018-01-27T11:44:10.012Z,101917
2018-01-27T11:46:39.049Z,101914
2018-01-27T11:49:07.288Z,101915
2018-01-27T11:51:35.555Z,101911
2018-01-27T11:54:04.586Z,101919
2018-01-27T11:56:32.845Z,101923
2018-01-27T11:59:01.121Z,101921
2018-01-27T12:01:29.396Z,101918
2018-01-27T12:03:57.731Z,101914
2018-01-27T12:06:25.994Z,101917
2018-01-27T12:08:54.320Z,101910
2018-01-27T12:11:22.614Z,101898
2018-01-27T12:13:50.861Z,101899
2018-01-27T12:16:19.186Z,101898
2018-01-27T12:18:47.441Z,101901
2018-01-27T12:21:15.736Z,101898
2018-01-27T12:23:44.032Z,101896
2018-01-27T12:26:12.316Z,101890
2018-01-27T12:28:40.578Z,101894
2018-01-27T12:31:08.873Z,101889
2018-01-27T12:33:37.151Z,101897
2018-01-27T12:36:05.415Z,101890
2018-01-27T12:38:33.706Z,101890
2018-01-27T12:41:02.081Z,101891
2018-01-27T12:43:30.734Z,101886
2018-01-27T12:45:59.032Z,101889
2018-01-27T12:48:27.354Z,101893
2018-01-27T12:50:55.589Z,101895
2018-01-27T12:53:23.887Z,101889
2018-01-27T12:55:52.939Z,101900
2018-01-27T12:58:21.186Z,101899
2018-01-27T13:00:49.561Z,101908
2018-01-27T13:03:17.790Z,101903
2018-01-27T13:05:46.088Z,101911
2018-01-27T13:08:15.155Z,101911
2018-01-27T13:10:43.408Z,101924
2018-01-27T13:13:11.672Z,101918
2018-01-27T13:15:39.998Z,101923
2018-01-27T13:18:08.247Z,101930
2018-01-27T13:20:36.496Z,101920
2018-01-27T13:23:04.813Z,101927
2018-01-27T13:25:33.078Z,101929
2018-01-27T13:28:01.305Z,101920
2018-01-27T13:30:29.566Z,101923
2018-01-27T13:32:58.554Z,101915
2018-01-27T13:35:26.810Z,101919
2018-01-27T13:37:55.124Z,101931
2018-01-27T13:40:23.463Z,101931
2018-01-27T13:42:51.717Z,101934
2018-01-27T13:45:20.298Z,101922
2018-01-27T13:47:48.559Z,101918
2018-01-27T13:50:16.849Z,101922
2018-01-27T13:52:45.134Z,101920
2018-01-27T13:55:13.398Z,101931
2018-01-27T13:57:41.680Z,101932
2018-01-27T14:00:09.990Z,101934
2018-01-27T14:02:39.019Z,101937
2018-01-27T14:05:07.363Z,101930
2018-01-27T14:07:36.447Z,101920
2018-01-27T14:10:04.735Z,101925
2018-01-27T14:12:34.551Z,101922
2018-01-27T14:15:03.607Z,101927
2018-01-27T14:17:31.873Z,101927
2018-01-27T14:20:00.177Z,101921
2018-01-27T14:22:28.480Z,101924
2018-01-27T14:24:57.486Z,101927
2018-01-27T14:27:25.800Z,101929
2018-01-27T14:29:54.156Z,101928
2018-01-27T14:32:22.394Z,101928
2018-01-27T14:34:50.660Z,101932
2018-01-27T14:37:19.985Z,101935
2018-01-27T14:39:48.240Z,101942
2018-01-27T14:42:16.608Z,101940
2018-01-27T14:44:44.895Z,101937
2018-01-27T14:47:14.054Z,101948
2018-01-27T14:49:42.330Z,101953
2018-01-27T14:52:10.658Z,101959
2018-01-27T14:54:38.908Z,101958
2018-01-27T14:57:07.154Z,101960
2018-01-27T14:59:35.434Z,101949
2018-01-27T15:02:03.724Z,101956
2018-01-27T15:04:31.982Z,101960
2018-01-27T15:07:00.286Z,101967
2018-01-27T15:09:28.571Z,101966
2018-01-27T15:11:57.683Z,101971
2018-01-27T15:14:26.754Z,101967
2018-01-27T15:16:55.024Z,101964
2018-01-27T15:19:23.356Z,101965
2018-01-27T15:21:51.677Z,101959
2018-01-27T15:24:19.946Z,101965
2018-01-27T15:26:48.220Z,101969
2018-01-27T15:29:16.516Z,101966
2018-01-27T15:31:44.756Z,101963
2018-01-27T15:34:13.027Z,101970
2018-01-27T15:36:41.470Z,101976
2018-01-27T15:39:09.714Z,101986
2018-01-27T15:41:37.966Z,101988
2018-01-27T15:44:06.297Z,101999
2018-01-27T15:46:35.281Z,102000
2018-01-27T15:49:04.399Z,102006
2018-01-27T15:51:32.668Z,102002
2018-01-27T15:54:00.963Z,102002
2018-01-27T15:56:29.960Z,101997
2018-01-27T15:58:58.235Z,101996
2018-01-27T16:01:26.470Z,102003
2018-01-27T16:03:54.721Z,101991
2018-01-27T16:06:22.995Z,102005
2018-01-27T16:08:51.328Z,102004
2018-01-27T16:11:19.558Z,102011
2018-01-27T16:13:48.723Z,102013
2018-01-27T16:16:16.981Z,102019
2018-01-27T16:18:45.308Z,102026
2018-01-27T16:21:13.590Z,102033
2018-01-27T16:23:41.896Z,102028
2018-01-27T16:26:10.219Z,102030
2018-01-27T16:28:38.874Z,102028
2018-01-27T16:31:07.956Z,102024
2018-01-27T16:33:36.221Z,102040
2018-01-27T16:36:04.550Z,102030
2018-01-27T16:38:32.828Z,102028
2018-01-27T16:41:01.158Z,102034
2018-01-27T16:43:29.691Z,102035
2018-01-27T16:45:57.921Z,102037
2018-01-27T16:48:26.171Z,102041
2018-01-27T16:50:55.398Z,102049
2018-01-27T16:53:23.660Z,102049
2018-01-27T16:55:51.942Z,102043
2018-01-27T16:58:20.280Z,102053
2018-01-27T17:00:48.516Z,102054
2018-01-27T17:03:16.755Z,102055
2018-01-27T17:05:46.049Z,102052
2018-01-27T17:08:15.196Z,102058
2018-01-27T17:10:43.506Z,102051
2018-01-27T17:13:11.763Z,102062
2018-01-27T17:15:41.882Z,102060
2018-01-27T17:18:12.781Z,102067
2018-01-27T17:20:41.516Z,102067
2018-01-27T17:23:16.170Z,102074
2018-01-27T17:25:44.591Z,102070
2018-01-27T17:28:13.721Z,102081
2018-01-27T17:30:41.987Z,102076
2018-01-27T17:33:11.022Z,102074
2018-01-27T17:35:39.311Z,102074
2018-01-27T17:38:08.315Z,102067
2018-01-27T17:40:36.601Z,102066
2018-01-27T17:43:04.856Z,102065
2018-01-27T17:45:33.103Z,102070
2018-01-27T17:48:02.155Z,102071
2018-01-27T17:50:30.509Z,102074
2018-01-27T17:52:58.781Z,102078
2018-01-27T17:55:27.060Z,102067
2018-01-27T17:57:55.369Z,102063
2018-01-27T18:00:23.608Z,102055
2018-01-27T18:02:51.859Z,102060
2018-01-27T18:05:20.989Z,102058
2018-01-27T18:07:49.236Z,102057
2018-01-27T18:10:18.300Z,102048
2018-01-27T18:12:47.311Z,102054
2018-01-27T18:15:16.421Z,102063
2018-01-27T18:17:44.709Z,102051
2018-01-27T18:20:12.933Z,102057
2018-01-27T18:22:41.247Z,102065
2018-01-27T18:25:09.503Z,102068
2018-01-27T18:27:38.569Z,102056
2018-01-27T18:30:07.656Z,102047
2018-01-27T18:32:36.765Z,102053
2018-01-27T18:35:05.070Z,102061
2018-01-27T18:37:34.097Z,102060
2018-01-27T18:40:02.397Z,102066
2018-01-27T18:42:30.733Z,102051
2018-01-27T18:44:59.045Z,102064
2018-01-27T18:47:27.743Z,102066
2018-01-27T18:49:56.086Z,102067
2018-01-27T18:52:25.406Z,102067
2018-01-27T18:54:53.717Z,102070
2018-01-27T18:57:22.025Z,102064
2018-01-27T18:59:50.283Z,102066
2018-01-27T19:02:19.349Z,102068
2018-01-27T19:04:47.675Z,102070
2018-01-27T19:07:15.904Z,102065
2018-01-27T19:09:44.973Z,102065
2018-01-27T19:12:13.369Z,102072
2018-01-27T19:14:41.654Z,102068
2018-01-27T19:17:09.904Z,102083
2018-01-27T19:19:38.302Z,102075
2018-01-27T19:22:06.549Z,102062
2018-01-27T19:24:34.815Z,102076
2018-01-27T19:27:03.089Z,102070
2018-01-27T19:29:31.338Z,102059
2018-01-27T19:32:00.382Z,102053
2018-01-27T19:34:28.780Z,102043
2018-01-27T19:36:57.974Z,102037
2018-01-27T19:39:26.244Z,102025
2018-01-27T19:41:54.553Z,102018
2018-01-27T19:44:23.580Z,102011
2018-01-27T19:46:51.833Z,102013
2018-01-27T19:49:20.189Z,102010
2018-01-27T19:51:49.200Z,102006
2018-01-27T19:54:18.249Z,102011
2018-01-27T19:56:46.673Z,102003
2018-01-27T19:59:15.744Z,102010
2018-01-27T20:01:44.022Z,102000
2018-01-27T20:04:12.327Z,101990
2018-01-27T20:06:41.352Z,101988
2018-01-27T20:09:09.674Z,101986
2018-01-27T20:11:38.623Z,101989
2018-01-27T20:14:06.935Z,101982
2018-01-27T20:16:35.194Z,101986
2018-01-27T20:19:03.837Z,101978
2018-01-27T20:21:32.952Z,101969
2018-01-27T20:24:01.295Z,101972
2018-01-27T20:26:31.178Z,101973
2018-01-27T20:28:59.446Z,101971
2018-01-27T20:31:27.703Z,101973
2018-01-27T20:33:56.000Z,101985
2018-01-27T20:36:24.250Z,101989
2018-01-27T20:38:52.501Z,101981
2018-01-27T20:41:20.772Z,101981
2018-01-27T20:43:49.549Z,101979
2018-01-27T20:46:18.546Z,101978
2018-01-27T20:48:46.924Z,101981
2018-01-27T20:51:16.011Z,101980
2018-01-27T20:53:45.020Z,101977
2018-01-27T20:56:13.286Z,101975
2018-01-27T20:58:41.555Z,101968
2018-01-27T21:01:10.599Z,101975
2018-01-27T21:03:38.949Z,101961
2018-01-27T21:06:07.201Z,101973
2018-01-27T21:08:35.577Z,101970
2018-01-27T21:11:04.625Z,101961
2018-01-27T21:13:32.875Z,101959
2018-01-27T21:16:01.108Z,101959
2018-01-27T21:18:29.405Z,101966
2018-01-27T21:20:58.407Z,101975
2018-01-27T21:23:26.665Z,101973
2018-01-27T21:25:55.720Z,101980
2018-01-27T21:28:23.958Z,101965
2018-01-27T21:30:52.248Z,101962
2018-01-27T21:33:20.538Z,101952
2018-01-27T21:35:48.779Z,101949
2018-01-27T21:38:17.173Z,101952
2018-01-27T21:40:45.458Z,101966
2018-01-27T21:43:13.718Z,101968
2018-01-27T21:45:42.050Z,101963
2018-01-27T21:48:10.320Z,101960
2018-01-27T21:50:38.611Z,101960
2018-01-27T21:53:06.964Z,101955
2018-01-27T21:55:35.285Z,101955
2018-01-27T21:58:03.517Z,101959
2018-01-27T22:00:31.793Z,101960
2018-01-27T22:03:00.073Z,101954
2018-01-27T22:05:28.357Z,101941
2018-01-27T22:07:56.638Z,101951
2018-01-27T22:10:24.905Z,101945
2018-01-27T22:12:53.181Z,101953
2018-01-27T22:15:21.414Z,101946
2018-01-27T22:17:49.698Z,101928
2018-01-27T22:20:17.933Z,101932
2018-01-27T22:22:46.950Z,101927
2018-01-27T22:25:15.394Z,101922
2018-01-27T22:27:44.400Z,101910
2018-01-27T22:30:13.399Z,101909
2018-01-27T22:32:42.493Z,101905
2018-01-27T22:35:11.553Z,101900
2018-01-27T22:37:39.799Z,101908
2018-01-27T22:40:08.081Z,101912
2018-01-27T22:42:36.329Z,101918
2018-01-27T22:45:04.617Z,101927
2018-01-27T22:47:32.953Z,101928
2018-01-27T22:50:01.953Z,101919
2018-01-27T22:52:30.954Z,101914
2018-01-27T22:54:59.477Z,101903
2018-01-27T22:57:27.717Z,101910
2018-01-27T22:59:55.956Z,101901
2018-01-27T23:02:24.239Z,101891
2018-01-27T23:04:52.463Z,101886
2018-01-27T23:07:20.703Z,101893
2018-01-27T23:09:49.884Z,101895
2018-01-27T23:12:18.892Z,101902
2018-01-27T23:14:47.894Z,101901
2018-01-27T23:17:16.940Z,101899
2018-01-27T23:19:45.171Z,101898
2018-01-27T23:22:13.406Z,101899
2018-01-27T23:24:41.755Z,101894
2018-01-27T23:27:10.103Z,101889
2018-01-27T23:29:38.360Z,101875
2018-01-27T23:32:07.397Z,101872
2018-01-27T23:34:35.628Z,101853
2018-01-27T23:37:04.657Z,101849
2018-01-27T23:39:32.925Z,101849
2018-01-27T23:42:01.199Z,101845
2018-01-27T23:44:29.434Z,101843
2018-01-27T23:46:57.710Z,101842
2018-01-27T23:49:26.027Z,101839
2018-01-27T23:51:54.292Z,101835
2018-01-27T23:54:22.558Z,101833
2018-01-27T23:56:51.587Z,101837
2018-01-27T23:59:19.818Z,101823
